Time;durP1;ratioP1;P1;durP2;ratioP2;P2;SDS_P1;SDS_P2;PMS_P1;PMS_P2;Temp;Humidity;BMP_temperature;BMP_pressure;BME280_temperature;BME280_humidity;BME280_pressure;Samples;Min_cycle;Max_cycle;Signal;HPM_P1;HPM_P2
2023/12/02 00:00:36;;;;;;;0.60;0.20;;;0.00;99.90;;;;;;4883436;29;20478;-75
2023/12/02 00:03:04;;;;;;;1.33;0.47;;;0.00;99.90;;;;;;4882422;29;20492;-76
2023/12/02 00:05:32;;;;;;;0.80;0.60;;;0.10;99.90;;;;;;4882908;29;20446;-74
2023/12/02 00:08:00;;;;;;;0.87;0.50;;;0.10;99.90;;;;;;4872081;29;20486;-74
2023/12/02 00:10:28;;;;;;;1.73;0.50;;;0.00;99.90;;;;;;4863539;29;20850;-75
2023/12/02 00:12:56;;;;;;;1.47;0.20;;;0.00;99.90;;;;;;4863678;29;20538;-75
2023/12/02 00:15:24;;;;;;;2.93;2.83;;;-0.10;99.90;;;;;;4866007;29;20529;-76
2023/12/02 00:17:54;;;;;;;0.70;0.33;;;-0.20;99.90;;;;;;4863235;29;20454;-76
2023/12/02 00:20:21;;;;;;;0.60;0.10;;;-0.10;99.90;;;;;;4871732;29;20458;-75
2023/12/02 00:22:49;;;;;;;0.60;0.10;;;0.00;99.90;;;;;;4867441;29;20892;-75
2023/12/02 00:25:16;;;;;;;1.70;0.80;;;0.10;99.90;;;;;;4864402;29;20542;-77
2023/12/02 00:27:44;;;;;;;1.47;1.10;;;0.00;99.90;;;;;;4881802;29;20538;-76
2023/12/02 00:30:13;;;;;;;1.47;0.87;;;;;;;;;;4867877;29;20523;-75
2023/12/02 00:32:41;;;;;;;3.60;2.80;;;0.00;99.90;;;;;;4869388;29;20458;-76
2023/12/02 00:35:10;;;;;;;0.60;0.20;;;0.00;99.90;;;;;;4876440;29;20510;-74
2023/12/02 00:37:38;;;;;;;1.30;0.57;;;0.10;99.90;;;;;;4883422;29;20475;-75
2023/12/02 00:40:07;;;;;;;19.97;4.90;;;;;;;;;;4873992;29;20530;-76
2023/12/02 00:42:35;;;;;;;1.37;1.00;;;0.10;99.90;;;;;;4882266;29;20488;-75
2023/12/02 00:45:05;;;;;;;0.80;0.63;;;0.10;99.60;;;;;;4881324;29;20468;-76
2023/12/02 00:47:33;;;;;;;3.70;1.13;;;0.00;98.20;;;;;;4881667;29;20453;-75
2023/12/02 00:50:00;;;;;;;0.60;0.10;;;-0.10;98.30;;;;;;4894892;29;20458;-76
2023/12/02 00:52:30;;;;;;;0.80;0.60;;;-0.10;99.60;;;;;;4890394;29;20458;-75
2023/12/02 00:54:57;;;;;;;0.60;0.10;;;0.00;99.90;;;;;;4879143;29;20532;-76
2023/12/02 00:57:25;;;;;;;1.80;0.50;;;0.00;99.40;;;;;;4862393;29;20483;-76
2023/12/02 00:59:53;;;;;;;2.73;2.50;;;0.00;98.40;;;;;;4862183;29;20458;-76
2023/12/02 01:26:41;;;;;;;1.60;1.07;;;0.30;98.80;;;;;;5015566;23;20232;-74
2023/12/02 01:29:08;;;;;;;1.03;0.93;;;0.30;98.00;;;;;;4886985;29;20462;-74
2023/12/02 01:31:36;;;;;;;3.73;0.67;;;0.20;96.70;;;;;;4886013;29;20441;-74
2023/12/02 01:34:04;;;;;;;0.70;0.30;;;0.20;96.20;;;;;;4890498;29;20478;-75
2023/12/02 01:36:32;;;;;;;0.60;0.10;;;0.10;96.40;;;;;;4885959;29;20860;-73
2023/12/02 01:39:00;;;;;;;0.60;0.10;;;0.10;96.00;;;;;;4890735;29;20454;-73
2023/12/02 01:41:31;;;;;;;1.33;0.67;;;0.10;97.10;;;;;;4885860;29;20454;-74
2023/12/02 01:44:01;;;;;;;1.63;0.83;;;0.00;96.80;;;;;;4890375;29;20448;-75
2023/12/02 01:46:29;;;;;;;1.53;1.43;;;0.00;97.50;;;;;;4890784;29;20538;-76
2023/12/02 01:48:59;;;;;;;0.60;0.20;;;0.00;98.30;;;;;;4886713;29;20454;-75
2023/12/02 01:51:27;;;;;;;0.60;0.10;;;0.10;98.40;;;;;;4882008;29;20462;-75
2023/12/02 01:53:55;;;;;;;0.77;0.57;;;0.00;97.40;;;;;;4881340;29;20522;-76
2023/12/02 01:56:23;;;;;;;0.80;0.53;;;-0.10;97.20;;;;;;4884871;29;20491;-75
2023/12/02 01:58:52;;;;;;;2.97;1.13;;;-0.10;97.50;;;;;;4893713;29;20487;-75
2023/12/02 02:01:21;;;;;;;0.60;0.20;;;-0.10;99.90;;;;;;4900580;29;20516;-76
2023/12/02 02:03:50;;;;;;;0.80;0.60;;;-0.10;99.50;;;;;;4899416;29;20545;-75
2023/12/02 02:06:18;;;;;;;0.60;0.10;;;-0.10;99.90;;;;;;4897690;29;20469;-76
2023/12/02 02:08:46;;;;;;;0.60;0.10;;;0.00;99.90;;;;;;4898313;29;20926;-76
2023/12/02 02:11:14;;;;;;;0.60;0.20;;;0.00;99.90;;;;;;4897789;29;20548;-75
2023/12/02 02:13:42;;;;;;;0.87;0.40;;;0.00;99.90;;;;;;4898194;29;20456;-75
2023/12/02 02:16:10;;;;;;;0.60;0.10;;;0.00;99.40;;;;;;4897789;29;20528;-76
2023/12/02 02:18:39;;;;;;;0.60;0.30;;;0.10;99.20;;;;;;4887314;29;20534;-76
2023/12/02 02:21:08;;;;;;;0.90;0.50;;;0.10;98.50;;;;;;4879374;29;20553;-76
2023/12/02 02:23:37;;;;;;;0.70;0.40;;;0.00;98.70;;;;;;4879437;29;20446;-76
2023/12/02 02:26:05;;;;;;;0.83;0.73;;;0.00;99.50;;;;;;4878797;29;20488;-76
2023/12/02 02:28:33;;;;;;;0.97;0.67;;;0.00;99.90;;;;;;4879262;29;20529;-75
2023/12/02 02:31:01;;;;;;;1.20;1.10;;;0.10;99.90;;;;;;4878999;29;20450;-76
2023/12/02 02:33:31;;;;;;;7.90;1.57;;;-0.10;98.40;;;;;;4879240;29;20446;-75
2023/12/02 02:35:59;;;;;;;1.70;1.60;;;-0.20;99.90;;;;;;4894840;29;20517;-75
2023/12/02 02:38:27;;;;;;;1.53;1.00;;;-0.20;99.90;;;;;;4898075;29;20492;-75
2023/12/02 02:40:57;;;;;;;0.70;0.30;;;-0.20;99.90;;;;;;4897770;29;20459;-75
2023/12/02 02:43:24;;;;;;;0.80;0.50;;;-0.10;99.90;;;;;;4880528;29;20537;-76
2023/12/02 02:45:52;;;;;;;1.67;0.60;;;-0.10;99.90;;;;;;4879009;29;20561;-75
2023/12/02 02:48:20;;;;;;;0.60;0.30;;;-0.10;99.90;;;;;;4883180;29;20466;-75
2023/12/02 02:50:48;;;;;;;0.60;0.10;;;-0.10;99.90;;;;;;4894273;29;20472;-75
2023/12/02 02:53:16;;;;;;;4.77;1.03;;;0.00;99.90;;;;;;4889005;29;20543;-76
2023/12/02 02:55:44;;;;;;;1.23;0.97;;;;;;;;;;4901136;23;20539;-75
2023/12/02 02:58:13;;;;;;;0.60;0.10;;;-0.10;99.90;;;;;;4877687;29;20577;-74
2023/12/02 03:00:42;;;;;;;0.60;0.20;;;-0.10;99.90;;;;;;4887039;29;20454;-75
2023/12/02 03:03:09;;;;;;;0.60;0.10;;;0.00;99.90;;;;;;4881991;29;20481;-74
2023/12/02 03:05:38;;;;;;;0.70;0.30;;;;;;;;;;4880228;29;20442;-75
2023/12/02 03:08:06;;;;;;;0.60;0.40;;;0.00;99.90;;;;;;4863494;29;20446;-76
2023/12/02 03:10:34;;;;;;;0.93;0.50;;;0.10;99.90;;;;;;4863274;29;20890;-75
2023/12/02 03:13:02;;;;;;;0.60;0.10;;;0.00;99.90;;;;;;4864054;29;20946;-74
2023/12/02 03:15:31;;;;;;;1.63;0.57;;;0.10;99.90;;;;;;4863763;29;20537;-75
2023/12/02 03:17:59;;;;;;;0.97;0.87;;;0.00;99.90;;;;;;4863498;29;20510;-75
2023/12/02 03:20:27;;;;;;;0.83;0.60;;;0.00;99.70;;;;;;4863195;29;20546;-75
2023/12/02 03:22:55;;;;;;;0.60;0.20;;;0.00;99.90;;;;;;4862803;29;20455;-75
2023/12/02 03:25:23;;;;;;;2.23;0.80;;;0.00;99.90;;;;;;4862727;29;20549;-75
2023/12/02 03:27:51;;;;;;;0.60;0.20;;;0.00;99.90;;;;;;4862475;29;20899;-75
2023/12/02 03:30:19;;;;;;;0.60;0.20;;;0.00;99.90;;;;;;4863448;29;20491;-74
2023/12/02 03:32:48;;;;;;;1.47;1.17;;;0.10;99.90;;;;;;4864124;29;20466;-75
2023/12/02 03:35:17;;;;;;;0.60;0.20;;;0.00;99.90;;;;;;4864422;29;20950;-75
2023/12/02 03:37:46;;;;;;;0.80;0.40;;;0.10;99.90;;;;;;4863333;29;20516;-74
2023/12/02 03:40:14;;;;;;;0.70;0.20;;;-0.10;99.90;;;;;;4863082;29;20497;-75
2023/12/02 03:42:42;;;;;;;0.90;0.60;;;0.00;99.90;;;;;;4855137;29;20512;-75
2023/12/02 03:45:11;;;;;;;1.00;0.60;;;0.00;99.90;;;;;;4863528;29;20450;-75
2023/12/02 03:47:39;;;;;;;1.03;0.50;;;0.00;99.90;;;;;;4864134;29;20492;-75
2023/12/02 03:50:10;;;;;;;2.87;2.30;;;0.00;98.50;;;;;;4864274;29;20450;-75
2023/12/02 03:52:38;;;;;;;1.63;1.13;;;-0.10;97.80;;;;;;4863918;29;20454;-75
2023/12/02 03:55:07;;;;;;;0.60;0.10;;;-0.10;97.90;;;;;;4849702;29;20955;-75
2023/12/02 03:57:35;;;;;;;0.90;0.53;;;-0.10;97.30;;;;;;4846884;29;20510;-75
2023/12/02 04:00:10;;;;;;;0.60;0.10;;;-0.10;97.00;;;;;;4849738;29;20884;-74
2023/12/02 04:02:39;;;;;;;0.60;0.20;;;;;;;;;;4843513;29;20454;-76
2023/12/02 04:05:10;;;;;;;0.67;0.30;;;-0.10;97.30;;;;;;4843456;29;20972;-75
2023/12/02 04:07:38;;;;;;;0.70;0.30;;;-0.10;99.00;;;;;;4843078;29;20547;-75
2023/12/02 04:10:07;;;;;;;1.27;0.63;;;0.00;98.80;;;;;;4842920;29;20462;-75
2023/12/02 04:12:35;;;;;;;0.93;0.60;;;0.00;95.90;;;;;;4844316;29;20575;-75
2023/12/02 04:15:03;;;;;;;1.53;0.77;;;0.00;96.30;;;;;;4844991;29;20488;-73
2023/12/02 04:17:31;;;;;;;3.57;1.50;;;-0.10;94.90;;;;;;4844243;29;20999;-75
2023/12/02 04:19:59;;;;;;;0.70;0.27;;;-0.10;95.70;;;;;;4843568;29;20463;-75
2023/12/02 04:22:29;;;;;;;0.60;0.20;;;0.00;96.10;;;;;;4843404;29;21016;-73
2023/12/02 04:24:56;;;;;;;1.00;0.30;;;0.00;95.00;;;;;;4843451;29;20530;-75
2023/12/02 04:27:25;;;;;;;1.10;0.70;;;0.00;94.30;;;;;;4843348;29;20537;-73
2023/12/02 04:29:54;;;;;;;0.60;0.10;;;-0.10;94.40;;;;;;4843556;29;20484;-74
2023/12/02 04:32:22;;;;;;;0.60;0.10;;;-0.10;94.60;;;;;;4843238;29;20452;-74
2023/12/02 04:34:51;;;;;;;1.97;1.20;;;0.00;93.90;;;;;;4853952;29;20543;-73
2023/12/02 04:37:18;;;;;;;1.90;0.93;;;-0.10;92.80;;;;;;4861152;29;20972;-74
2023/12/02 04:39:48;;;;;;;1.27;1.17;;;-0.20;93.00;;;;;;4850462;29;20551;-74
2023/12/02 04:42:16;;;;;;;1.37;0.67;;;;;;;;;;4843458;29;20480;-74
2023/12/02 04:44:44;;;;;;;0.60;0.10;;;-0.20;94.20;;;;;;4842845;29;20523;-73
2023/12/02 04:47:12;;;;;;;1.27;1.17;;;-0.10;93.80;;;;;;4857302;29;20570;-73
2023/12/02 04:49:41;;;;;;;0.97;0.77;;;-0.10;92.90;;;;;;4861056;29;20466;-73
2023/12/02 04:52:09;;;;;;;2.03;0.87;;;-0.10;91.20;;;;;;4861013;29;20961;-73
2023/12/02 04:54:37;;;;;;;0.70;0.20;;;-0.10;90.90;;;;;;4861630;29;20487;-73
2023/12/02 04:57:07;;;;;;;1.87;0.87;;;;;;;;;;4861042;29;20487;-75
2023/12/02 04:59:34;;;;;;;0.60;0.10;;;-0.20;88.70;;;;;;4860794;29;20490;-76
2023/12/02 05:02:03;;;;;;;0.60;0.20;;;-0.30;90.20;;;;;;4861023;29;20466;-75
2023/12/02 05:04:31;;;;;;;0.77;0.20;;;;;;;;;;4860075;29;20458;-75
2023/12/02 05:06:59;;;;;;;0.70;0.20;;;-0.20;90.70;;;;;;4860262;29;20510;-75
2023/12/02 05:09:27;;;;;;;0.80;0.33;;;-0.30;88.50;;;;;;4844454;29;20528;-75
2023/12/02 05:11:55;;;;;;;0.60;0.10;;;-0.30;90.80;;;;;;4856180;29;20432;-73
2023/12/02 05:14:24;;;;;;;0.70;0.47;;;-0.30;91.50;;;;;;4855237;29;20521;-75
2023/12/02 05:16:52;;;;;;;0.60;0.10;;;-0.20;91.80;;;;;;4864644;29;20510;-74
2023/12/02 05:19:20;;;;;;;0.67;0.37;;;-0.20;91.60;;;;;;4871657;29;20491;-74
2023/12/02 05:21:48;;;;;;;0.60;0.10;;;-0.30;91.80;;;;;;4873866;29;20808;-74
2023/12/02 05:24:18;;;;;;;0.67;0.20;;;-0.20;92.40;;;;;;4869832;29;20489;-74
2023/12/02 05:26:47;;;;;;;0.70;0.50;;;-0.20;92.60;;;;;;4867603;29;20475;-75
2023/12/02 05:29:14;;;;;;;0.90;0.70;;;-0.20;92.20;;;;;;4860883;29;20535;-73
2023/12/02 05:31:44;;;;;;;3.97;3.67;;;;;;;;;;4860489;29;20490;-75
2023/12/02 05:34:12;;;;;;;0.70;0.33;;;-0.20;88.90;;;;;;4860327;29;20551;-75
2023/12/02 05:36:40;;;;;;;0.60;0.10;;;-0.20;89.20;;;;;;4859757;29;20478;-74
2023/12/02 05:39:09;;;;;;;0.60;0.17;;;-0.30;89.40;;;;;;4859721;29;20903;-75
2023/12/02 05:41:40;;;;;;;0.60;0.20;;;-0.30;90.60;;;;;;4859813;29;20552;-74
2023/12/02 05:44:08;;;;;;;2.13;0.90;;;-0.30;90.60;;;;;;4860185;29;20558;-75
2023/12/02 05:46:37;;;;;;;0.80;0.70;;;-0.30;90.90;;;;;;4859663;29;20495;-74
2023/12/02 05:49:06;;;;;;;0.60;0.30;;;-0.30;91.30;;;;;;4859632;29;20450;-75
2023/12/02 05:51:37;;;;;;;0.67;0.33;;;-0.20;91.40;;;;;;4859714;29;20524;-75
2023/12/02 05:54:07;;;;;;;0.60;0.10;;;-0.20;89.50;;;;;;4859919;29;20463;-75
2023/12/02 05:56:36;;;;;;;1.40;0.47;;;-0.20;90.70;;;;;;4858763;29;20487;-74
2023/12/02 05:59:04;;;;;;;0.60;0.20;;;-0.20;91.30;;;;;;4859867;29;20569;-75
2023/12/02 06:01:32;;;;;;;0.60;0.20;;;-0.20;90.70;;;;;;4844415;29;20902;-72
2023/12/02 06:04:00;;;;;;;0.70;0.30;;;-0.20;89.90;;;;;;4841192;29;20962;-74
2023/12/02 06:06:29;;;;;;;0.80;0.77;;;-0.20;88.40;;;;;;4849085;29;20481;-75
2023/12/02 06:08:58;;;;;;;6.03;0.63;;;;;;;;;;4859270;29;20508;-73
2023/12/02 06:11:26;;;;;;;0.97;0.77;;;-0.30;86.80;;;;;;4859151;29;20800;-74
2023/12/02 06:13:54;;;;;;;0.90;0.77;;;-0.30;86.70;;;;;;4852436;29;20542;-75
2023/12/02 06:16:21;;;;;;;0.60;0.10;;;-0.40;87.00;;;;;;4859218;29;20562;-74
2023/12/02 06:18:49;;;;;;;1.37;1.27;;;-0.30;87.10;;;;;;4859206;29;20491;-74
2023/12/02 06:21:17;;;;;;;1.07;0.97;;;-0.30;87.50;;;;;;4859325;29;20480;-73
2023/12/02 06:23:47;;;;;;;0.60;0.10;;;-0.30;87.90;;;;;;4859600;29;20493;-74
2023/12/02 06:26:16;;;;;;;0.90;0.40;;;-0.30;89.60;;;;;;4860493;29;20473;-72
2023/12/02 06:28:47;;;;;;;0.60;0.10;;;-0.30;90.40;;;;;;4849559;29;20452;-75
2023/12/02 06:31:15;;;;;;;1.07;0.87;;;-0.20;92.10;;;;;;4849584;29;20497;-74
2023/12/02 06:33:43;;;;;;;1.20;0.73;;;-0.20;93.40;;;;;;4863959;29;20454;-74
2023/12/02 06:36:12;;;;;;;0.97;0.87;;;-0.20;94.30;;;;;;4863479;29;20585;-74
2023/12/02 06:38:40;;;;;;;1.07;0.40;;;-0.20;94.40;;;;;;4863881;29;20490;-74
2023/12/02 06:41:09;;;;;;;0.60;0.10;;;-0.20;95.20;;;;;;4871842;29;20462;-74
2023/12/02 06:43:37;;;;;;;1.73;1.23;;;-0.20;95.60;;;;;;4878320;29;20443;-75
2023/12/02 06:46:06;;;;;;;1.10;0.63;;;-0.20;95.40;;;;;;4878351;29;20533;-75
2023/12/02 06:48:34;;;;;;;2.20;1.40;;;-0.20;95.70;;;;;;4869442;29;21030;-75
2023/12/02 06:51:02;;;;;;;1.23;0.77;;;-0.20;96.80;;;;;;4859561;29;20456;-76
2023/12/02 06:53:30;;;;;;;0.90;0.67;;;-0.10;96.60;;;;;;4859465;29;20525;-73
2023/12/02 06:55:58;;;;;;;0.80;0.67;;;;;;;;;;4859272;29;20522;-74
2023/12/02 06:58:27;;;;;;;0.60;0.23;;;-0.10;95.20;;;;;;4851485;29;21008;-75
2023/12/02 07:00:55;;;;;;;0.70;0.20;;;-0.10;95.50;;;;;;4852262;29;20447;-73
2023/12/02 07:03:23;;;;;;;0.60;0.10;;;0.00;95.50;;;;;;4859848;29;20551;-74
2023/12/02 07:05:52;;;;;;;0.80;0.60;;;;;;;;;;4859498;29;20543;-74
2023/12/02 07:08:20;;;;;;;0.60;0.10;;;0.00;93.00;;;;;;4852346;29;20452;-74
2023/12/02 07:10:48;;;;;;;0.90;0.50;;;-0.10;92.40;;;;;;4840327;29;20486;-73
2023/12/02 07:13:16;;;;;;;0.70;0.20;;;-0.10;92.00;;;;;;4846827;29;20493;-74
2023/12/02 07:15:45;;;;;;;4.40;2.43;;;-0.10;92.10;;;;;;4860587;29;20462;-73
2023/12/02 07:18:13;;;;;;;1.30;0.70;;;-0.10;92.60;;;;;;4863565;29;20458;-74
2023/12/02 07:20:41;;;;;;;0.60;0.20;;;-0.10;91.80;;;;;;4863491;29;20543;-73
2023/12/02 07:23:09;;;;;;;0.90;0.60;;;-0.10;91.60;;;;;;4864827;29;20450;-74
2023/12/02 07:25:37;;;;;;;1.03;0.40;;;-0.10;92.20;;;;;;4863953;29;20569;-75
2023/12/02 07:28:05;;;;;;;0.70;0.30;;;-0.20;90.10;;;;;;4864593;29;20525;-74
2023/12/02 07:30:33;;;;;;;2.80;1.90;;;-0.20;90.70;;;;;;4863733;29;20453;-74
2023/12/02 07:33:02;;;;;;;1.77;1.30;;;-0.20;90.50;;;;;;4860664;29;21002;-74
2023/12/02 07:35:30;;;;;;;4.83;3.70;;;-0.20;90.70;;;;;;4859882;29;20488;-75
2023/12/02 07:37:58;;;;;;;1.20;0.77;;;-0.20;90.80;;;;;;4860410;29;20519;-75
2023/12/02 07:40:26;;;;;;;0.80;0.30;;;-0.10;89.80;;;;;;4860688;29;20486;-74
2023/12/02 07:42:54;;;;;;;0.60;0.10;;;-0.10;88.50;;;;;;4860832;29;20455;-76
2023/12/02 07:45:22;;;;;;;2.73;1.83;;;-0.10;85.80;;;;;;4861821;29;20491;-74
2023/12/02 07:47:50;;;;;;;0.70;0.30;;;-0.20;83.80;;;;;;4863408;29;21016;-73
2023/12/02 07:50:19;;;;;;;0.90;0.90;;;-0.10;84.80;;;;;;4862975;29;20506;-75
2023/12/02 07:52:47;;;;;;;0.60;0.10;;;-0.20;84.80;;;;;;4863302;29;20514;-75
2023/12/02 07:55:15;;;;;;;0.97;0.47;;;-0.10;83.40;;;;;;4864100;29;20488;-75
2023/12/02 07:57:43;;;;;;;0.60;0.10;;;-0.20;83.60;;;;;;4864211;29;20486;-74
2023/12/02 08:00:12;;;;;;;0.60;0.20;;;-0.10;83.50;;;;;;4864164;29;20680;-73
2023/12/02 08:02:40;;;;;;;2.83;1.80;;;-0.20;79.30;;;;;;4863097;29;20579;-74
2023/12/02 08:05:09;;;;;;;3.63;1.53;;;-0.20;80.70;;;;;;4863885;29;20453;-73
2023/12/02 08:07:42;;;;;;;0.90;0.40;;;-0.20;81.70;;;;;;4863450;29;21041;-75
2023/12/02 08:10:10;;;;;;;0.70;0.37;;;-0.20;80.60;;;;;;4863943;29;20469;-75
2023/12/02 08:12:38;;;;;;;0.70;0.30;;;-0.20;80.60;;;;;;4863009;29;20455;-75
2023/12/02 08:15:07;;;;;;;1.00;0.87;;;-0.20;80.30;;;;;;4862098;29;20922;-75
2023/12/02 08:17:35;;;;;;;0.60;0.20;;;-0.30;77.30;;;;;;4867552;29;20475;-75
2023/12/02 08:20:03;;;;;;;0.60;0.20;;;-0.30;79.30;;;;;;4863320;29;20589;-74
2023/12/02 08:22:31;;;;;;;0.70;0.30;;;-0.40;79.70;;;;;;4877535;29;20514;-73
2023/12/02 08:25:00;;;;;;;1.43;1.17;;;-0.30;79.80;;;;;;4864568;29;20931;-74
2023/12/02 08:27:28;;;;;;;0.60;0.20;;;-0.30;76.80;;;;;;4861798;29;20482;-75
2023/12/02 08:29:56;;;;;;;0.80;0.37;;;-0.30;75.00;;;;;;4861945;29;20444;-74
2023/12/02 08:32:24;;;;;;;0.60;0.30;;;-0.30;72.20;;;;;;4861866;29;20531;-75
2023/12/02 08:34:52;;;;;;;0.90;0.60;;;-0.40;71.80;;;;;;4850638;29;20475;-76
2023/12/02 08:37:20;;;;;;;0.60;0.10;;;-0.40;69.10;;;;;;4843603;29;20474;-75
2023/12/02 08:39:48;;;;;;;0.70;0.47;;;-0.50;70.80;;;;;;4843927;29;20544;-74
2023/12/02 08:42:17;;;;;;;1.17;0.87;;;-0.40;70.80;;;;;;4844119;29;20463;-75
2023/12/02 08:44:45;;;;;;;1.27;0.90;;;-0.40;68.20;;;;;;4845660;29;20468;-76
2023/12/02 08:47:13;;;;;;;1.03;0.70;;;;;;;;;;4845519;29;20487;-75
2023/12/02 08:49:41;;;;;;;2.70;0.40;;;-0.40;68.80;;;;;;4843988;29;20456;-75
2023/12/02 08:52:09;;;;;;;2.30;0.70;;;-0.30;69.20;;;;;;4843444;29;20530;-74
2023/12/02 08:54:37;;;;;;;2.73;0.60;;;-0.40;65.70;;;;;;4843288;29;20461;-75
2023/12/02 08:57:05;;;;;;;0.60;0.10;;;-0.40;62.80;;;;;;4842705;29;20500;-74
2023/12/02 08:59:35;;;;;;;0.73;0.37;;;-0.40;61.60;;;;;;4843332;29;20547;-75
2023/12/02 09:02:05;;;;;;;0.60;0.10;;;-0.40;61.00;;;;;;4845753;29;20539;-75
2023/12/02 09:04:33;;;;;;;0.70;0.23;;;-0.40;59.40;;;;;;4844748;29;20458;-74
2023/12/02 09:07:01;;;;;;;0.60;0.30;;;-0.40;60.80;;;;;;4843675;29;20557;-74
2023/12/02 09:09:29;;;;;;;0.60;0.20;;;-0.30;62.20;;;;;;4842698;29;20812;-74
2023/12/02 09:11:57;;;;;;;1.23;0.30;;;-0.30;60.60;;;;;;4842859;29;20462;-75
2023/12/02 09:14:25;;;;;;;0.87;0.40;;;-0.30;61.80;;;;;;4848242;29;20478;-74
2023/12/02 09:16:55;;;;;;;1.47;0.50;;;-0.30;62.50;;;;;;4843784;29;20476;-75
2023/12/02 09:19:56;;;;;;;0.90;0.40;;;-0.20;62.20;;;;;;4842845;29;20448;-74
2023/12/02 09:22:48;;;;;;;0.83;0.63;;;-0.20;63.40;;;;;;4856427;29;20447;-74
2023/12/02 09:25:28;;;;;;;2.30;2.20;;;-0.20;65.70;;;;;;4851078;29;20482;-74
2023/12/02 09:28:19;;;;;;;0.60;0.30;;;-0.20;66.70;;;;;;4860178;29;20992;-74
2023/12/02 09:31:06;;;;;;;0.60;0.10;;;-0.10;67.80;;;;;;4859295;29;20517;-73
2023/12/02 09:33:39;;;;;;;0.60;0.20;;;-0.10;66.70;;;;;;4848666;29;20524;-73
2023/12/02 09:36:24;;;;;;;0.80;0.40;;;-0.20;66.10;;;;;;4856969;29;20534;-73
2023/12/02 09:38:53;;;;;;;0.80;0.70;;;-0.20;68.70;;;;;;4864337;29;20478;-75
2023/12/02 09:41:46;;;;;;;1.60;1.50;;;-0.20;68.60;;;;;;4864279;29;20483;-74
2023/12/02 09:44:24;;;;;;;1.47;0.93;;;-0.20;69.60;;;;;;4853237;29;20549;-75
2023/12/02 09:47:01;;;;;;;0.60;0.10;;;-0.20;71.40;;;;;;4862617;29;20474;-75
2023/12/02 09:49:49;;;;;;;5.67;5.27;;;-0.10;71.10;;;;;;4848535;29;20463;-75
2023/12/02 09:52:33;;;;;;;1.10;0.73;;;-0.10;71.40;;;;;;4851205;29;20473;-74
2023/12/02 09:55:10;;;;;;;2.00;0.40;;;0.00;82.40;;;;;;4855426;29;20455;-75
2023/12/02 09:57:46;;;;;;;0.60;0.10;;;0.10;78.80;;;;;;4854842;29;20516;-73
2023/12/02 10:00:22;;;;;;;0.73;0.30;;;0.00;69.80;;;;;;4858027;29;20483;-76
2023/12/02 10:03:04;;;;;;;0.90;0.30;;;0.00;63.00;;;;;;4853379;29;20494;-74
2023/12/02 10:05:43;;;;;;;0.67;0.40;;;-0.10;61.40;;;;;;4855475;29;20460;-76
2023/12/02 10:08:18;;;;;;;0.60;0.10;;;-0.10;61.60;;;;;;4857220;29;20935;-73
2023/12/02 10:11:02;;;;;;;0.60;0.10;;;-0.10;61.70;;;;;;4850631;29;20536;-73
2023/12/02 10:13:43;;;;;;;0.70;0.60;;;-0.10;60.20;;;;;;4856233;29;20454;-73
2023/12/02 10:16:14;;;;;;;0.60;0.20;;;-0.10;59.50;;;;;;4843635;29;20526;-72
2023/12/02 10:18:52;;;;;;;6.43;0.97;;;-0.10;57.70;;;;;;4850740;29;20456;-75
2023/12/02 10:21:22;;;;;;;0.90;0.30;;;-0.10;56.70;;;;;;4859650;29;20498;-74
2023/12/02 10:23:58;;;;;;;0.60;0.10;;;-0.10;55.00;;;;;;4861591;29;20514;-75
2023/12/02 10:26:29;;;;;;;0.60;0.20;;;-0.10;55.90;;;;;;4856078;29;20538;-74
2023/12/02 10:29:09;;;;;;;0.60;0.23;;;-0.10;54.30;;;;;;4860056;29;20451;-74
2023/12/02 10:31:45;;;;;;;5.23;1.37;;;0.00;52.40;;;;;;4854900;29;20590;-75
2023/12/02 10:34:22;;;;;;;0.60;0.10;;;-0.10;49.80;;;;;;4847420;29;20470;-75
2023/12/02 10:36:53;;;;;;;0.60;0.10;;;-0.10;50.20;;;;;;4849448;29;20497;-74
2023/12/02 10:39:33;;;;;;;0.60;0.20;;;-0.10;51.90;;;;;;4858884;29;20459;-75
2023/12/02 10:42:03;;;;;;;2.30;1.30;;;-0.20;49.80;;;;;;4852336;29;20530;-74
2023/12/02 10:44:33;;;;;;;0.70;0.30;;;-0.20;50.70;;;;;;4861561;29;20522;-75
2023/12/02 10:47:02;;;;;;;0.87;0.33;;;-0.20;51.30;;;;;;4861404;29;20970;-75
2023/12/02 10:49:30;;;;;;;0.60;0.20;;;-0.10;49.80;;;;;;4852727;29;20460;-74
2023/12/02 10:52:00;;;;;;;0.67;0.27;;;-0.10;49.00;;;;;;4852408;29;20902;-75
2023/12/02 10:54:35;;;;;;;2.00;1.63;;;-0.10;47.80;;;;;;4856757;29;20982;-73
2023/12/02 10:57:07;;;;;;;0.60;0.10;;;-0.10;49.10;;;;;;4857244;29;20558;-76
2023/12/02 10:59:41;;;;;;;0.73;0.30;;;-0.10;48.70;;;;;;4850735;29;20873;-74
2023/12/02 11:02:23;;;;;;;0.60;0.10;;;-0.10;50.30;;;;;;4845988;29;20499;-74
2023/12/02 11:04:57;;;;;;;0.60;0.10;;;0.00;52.00;;;;;;4854352;29;20650;-75
2023/12/02 11:07:29;;;;;;;4.40;1.30;;;0.00;52.10;;;;;;4858791;29;20494;-74
2023/12/02 11:10:02;;;;;;;0.60;0.10;;;0.10;53.70;;;;;;4856660;29;20455;-75
2023/12/02 11:12:36;;;;;;;0.70;0.40;;;0.10;55.30;;;;;;4848378;29;20516;-74
2023/12/02 11:15:09;;;;;;;0.60;0.10;;;0.10;55.40;;;;;;4850977;29;20460;-75
2023/12/02 11:17:41;;;;;;;0.60;0.10;;;0.10;54.20;;;;;;4842244;29;20513;-75
2023/12/02 11:20:16;;;;;;;14.03;2.20;;;0.10;55.70;;;;;;4856954;29;20970;-75
2023/12/02 11:23:13;;;;;;;0.60;0.20;;;0.10;55.70;;;;;;4854036;29;20498;-74
2023/12/02 11:25:53;;;;;;;0.60;0.10;;;0.10;55.00;;;;;;4849977;29;20463;-75
2023/12/02 11:28:30;;;;;;;0.60;0.10;;;0.10;54.60;;;;;;4856054;29;20462;-75
2023/12/02 11:31:14;;;;;;;0.60;0.10;;;0.20;54.50;;;;;;4862744;29;20489;-74
2023/12/02 11:33:55;;;;;;;0.60;0.10;;;0.20;55.50;;;;;;4851835;29;20495;-73
2023/12/02 11:36:33;;;;;;;0.70;0.50;;;0.30;55.90;;;;;;4862964;29;21065;-75
2023/12/02 11:39:10;;;;;;;0.60;0.10;;;0.30;55.10;;;;;;4855423;29;20787;-75
2023/12/02 11:41:49;;;;;;;0.80;0.27;;;0.30;53.40;;;;;;4855773;29;20505;-73
2023/12/02 11:44:22;;;;;;;1.43;0.63;;;0.30;50.90;;;;;;4860028;29;20884;-74
2023/12/02 11:47:11;;;;;;;0.60;0.10;;;0.20;48.80;;;;;;4861589;29;20554;-75
2023/12/02 11:49:53;;;;;;;0.60;0.10;;;0.20;49.40;;;;;;4861425;29;20597;-76
2023/12/02 11:52:31;;;;;;;1.13;1.03;;;0.20;49.50;;;;;;4855832;29;20453;-75
2023/12/02 11:55:12;;;;;;;0.83;0.83;;;0.20;47.20;;;;;;4860489;29;20481;-74
2023/12/02 11:57:52;;;;;;;0.60;0.10;;;0.20;46.70;;;;;;4860999;29;20502;-75
2023/12/02 12:00:30;;;;;;;0.60;0.10;;;0.30;47.30;;;;;;4850297;29;20462;-75
2023/12/02 12:03:11;;;;;;;1.30;0.60;;;0.30;47.70;;;;;;4857501;29;20486;-74
2023/12/02 12:05:46;;;;;;;0.60;0.10;;;0.30;48.20;;;;;;4848868;29;20459;-75
2023/12/02 12:08:19;;;;;;;1.40;0.83;;;0.30;48.70;;;;;;4848391;29;20486;-75
2023/12/02 12:10:55;;;;;;;0.70;0.30;;;0.30;48.00;;;;;;4854857;29;20541;-75
2023/12/02 12:13:25;;;;;;;0.60;0.10;;;0.30;47.00;;;;;;4861107;29;20458;-75
2023/12/02 12:15:54;;;;;;;0.67;0.27;;;0.30;46.90;;;;;;4859027;29;20478;-74
2023/12/02 12:18:23;;;;;;;0.60;0.10;;;0.30;45.00;;;;;;4849225;29;20480;-75
2023/12/02 12:20:55;;;;;;;0.60;0.10;;;-2.10;42.60;;;;;;4850537;29;20571;-74
2023/12/02 12:23:24;;;;;;;0.87;0.50;;;0.30;45.50;;;;;;4861597;29;20527;-74
2023/12/02 12:25:54;;;;;;;0.70;0.40;;;0.30;45.30;;;;;;4856019;29;20459;-75
2023/12/02 12:28:22;;;;;;;0.70;0.40;;;0.30;44.40;;;;;;4855067;29;20539;-75
2023/12/02 12:30:50;;;;;;;0.60;0.10;;;0.30;44.30;;;;;;4847760;29;20463;-75
2023/12/02 12:33:20;;;;;;;0.70;0.30;;;0.40;46.90;;;;;;4854409;29;20550;-74
2023/12/02 12:35:50;;;;;;;1.90;0.30;;;0.40;43.60;;;;;;4859174;29;20451;-75
2023/12/02 12:38:18;;;;;;;0.60;0.10;;;0.30;43.50;;;;;;4862469;29;20457;-74
2023/12/02 12:40:46;;;;;;;0.70;0.30;;;0.40;43.50;;;;;;4863240;29;20954;-74
2023/12/02 12:43:16;;;;;;;0.60;0.30;;;;;;;;;;4864261;29;20586;-74
2023/12/02 12:45:44;;;;;;;0.60;0.13;;;0.40;42.50;;;;;;4862726;29;20982;-75
2023/12/02 12:48:12;;;;;;;0.60;0.20;;;0.50;42.90;;;;;;4854374;29;20562;-75
2023/12/02 12:50:42;;;;;;;0.83;0.83;;;0.50;41.80;;;;;;4864016;29;20483;-73
2023/12/02 12:53:11;;;;;;;0.60;0.10;;;0.50;40.00;;;;;;4855728;29;20443;-75
2023/12/02 12:55:44;;;;;;;0.70;0.10;;;0.50;39.30;;;;;;4861099;29;20959;-73
2023/12/02 12:58:16;;;;;;;0.60;0.10;;;0.50;39.30;;;;;;4860048;29;20538;-73
2023/12/02 13:00:46;;;;;;;0.60;0.10;;;0.50;39.10;;;;;;4853230;29;20466;-73
2023/12/02 13:03:44;;;;;;;0.67;0.10;;;0.60;39.50;;;;;;4869538;29;20514;-75
2023/12/02 13:06:21;;;;;;;0.67;0.30;;;0.60;38.70;;;;;;4853122;29;20474;-75
2023/12/02 13:08:56;;;;;;;0.70;0.20;;;0.60;38.10;;;;;;4858738;29;20451;-75
2023/12/02 13:11:30;;;;;;;0.87;0.40;;;0.60;35.20;;;;;;4856191;29;20450;-75
2023/12/02 13:14:06;;;;;;;0.70;0.20;;;0.60;34.60;;;;;;4865601;29;20439;-74
2023/12/02 13:16:35;;;;;;;0.70;0.10;;;0.60;34.60;;;;;;4859780;29;20933;-74
2023/12/02 13:19:03;;;;;;;0.70;0.10;;;0.60;31.20;;;;;;4847717;29;21296;-74
2023/12/02 13:21:32;;;;;;;0.60;0.10;;;0.50;31.80;;;;;;4859817;29;20507;-74
2023/12/02 13:24:02;;;;;;;0.60;0.20;;;0.50;31.30;;;;;;4862529;29;20564;-74
2023/12/02 13:26:32;;;;;;;0.63;0.20;;;0.50;30.30;;;;;;4860413;29;20837;-74
2023/12/02 13:29:04;;;;;;;0.70;0.10;;;0.50;29.70;;;;;;4856802;29;21005;-74
2023/12/02 13:31:38;;;;;;;1.23;0.53;;;0.50;29.50;;;;;;4849678;29;20551;-74
2023/12/02 13:34:17;;;;;;;0.70;0.10;;;0.50;29.60;;;;;;4851530;29;20548;-75
2023/12/02 13:36:50;;;;;;;0.60;0.20;;;0.50;30.30;;;;;;4853745;29;20494;-74